sensor_id;sensor_type;location;lat;lon;timestamp;P1;durP1;ratioP1;P2;durP2;ratioP2
66129;SDS011;52930;51.464;11.764;2023-06-24T00:00:47;23.40;;;12.50;;
66129;SDS011;52930;51.464;11.764;2023-06-24T00:03:12;24.37;;;12.23;;
66129;SDS011;52930;51.464;11.764;2023-06-24T00:05:42;30.85;;;12.50;;
66129;SDS011;52930;51.464;11.764;2023-06-24T00:08:08;25.17;;;13.48;;
66129;SDS011;52930;51.464;11.764;2023-06-24T00:10:33;27.37;;;12.10;;
66129;SDS011;52930;51.464;11.764;2023-06-24T00:12:59;25.97;;;12.37;;
66129;SDS011;52930;51.464;11.764;2023-06-24T00:15:26;30.00;;;12.50;;
66129;SDS011;52930;51.464;11.764;2023-06-24T00:17:52;28.23;;;13.25;;
66129;SDS011;52930;51.464;11.764;2023-06-24T00:20:17;27.47;;;13.03;;
66129;SDS011;52930;51.464;11.764;2023-06-24T00:22:45;26.98;;;12.25;;
66129;SDS011;52930;51.464;11.764;2023-06-24T00:25:13;32.03;;;13.52;;
66129;SDS011;52930;51.464;11.764;2023-06-24T00:27:38;28.00;;;13.27;;
66129;SDS011;52930;51.464;11.764;2023-06-24T00:30:04;28.47;;;12.83;;
66129;SDS011;52930;51.464;11.764;2023-06-24T00:32:30;26.83;;;13.18;;
66129;SDS011;52930;51.464;11.764;2023-06-24T00:34:55;30.23;;;12.90;;
66129;SDS011;52930;51.464;11.764;2023-06-24T00:37:25;31.90;;;14.40;;
66129;SDS011;52930;51.464;11.764;2023-06-24T00:39:50;32.60;;;12.80;;
66129;SDS011;52930;51.464;11.764;2023-06-24T00:42:15;28.03;;;13.00;;
66129;SDS011;52930;51.464;11.764;2023-06-24T00:44:41;32.17;;;12.43;;
66129;SDS011;52930;51.464;11.764;2023-06-24T00:47:06;31.47;;;12.87;;
66129;SDS011;52930;51.464;11.764;2023-06-24T00:49:33;28.70;;;13.65;;
66129;SDS011;52930;51.464;11.764;2023-06-24T00:51:58;30.33;;;13.70;;
66129;SDS011;52930;51.464;11.764;2023-06-24T00:54:26;27.77;;;13.02;;
66129;SDS011;52930;51.464;11.764;2023-06-24T00:56:55;29.80;;;13.18;;
66129;SDS011;52930;51.464;11.764;2023-06-24T00:59:21;24.50;;;13.35;;
66129;SDS011;52930;51.464;11.764;2023-06-24T01:01:47;29.30;;;12.03;;
66129;SDS011;52930;51.464;11.764;2023-06-24T01:04:14;27.55;;;12.65;;
66129;SDS011;52930;51.464;11.764;2023-06-24T01:06:41;24.52;;;12.70;;
66129;SDS011;52930;51.464;11.764;2023-06-24T01:09:08;27.55;;;13.32;;
66129;SDS011;52930;51.464;11.764;2023-06-24T01:11:34;30.17;;;13.27;;
66129;SDS011;52930;51.464;11.764;2023-06-24T01:13:59;30.60;;;13.17;;
66129;SDS011;52930;51.464;11.764;2023-06-24T01:19:01;30.10;;;13.95;;
66129;SDS011;52930;51.464;11.764;2023-06-24T01:33:14;27.92;;;13.18;;
66129;SDS011;52930;51.464;11.764;2023-06-24T01:35:46;28.80;;;12.55;;
66129;SDS011;52930;51.464;11.764;2023-06-24T01:38:19;28.90;;;12.70;;
66129;SDS011;52930;51.464;11.764;2023-06-24T01:40:47;25.27;;;12.80;;
66129;SDS011;52930;51.464;11.764;2023-06-24T01:43:13;26.10;;;12.45;;
66129;SDS011;52930;51.464;11.764;2023-06-24T01:45:41;26.58;;;12.43;;
66129;SDS011;52930;51.464;11.764;2023-06-24T01:48:09;25.95;;;12.15;;
66129;SDS011;52930;51.464;11.764;2023-06-24T01:50:38;23.90;;;12.10;;
66129;SDS011;52930;51.464;11.764;2023-06-24T01:53:05;25.08;;;12.90;;
66129;SDS011;52930;51.464;11.764;2023-06-24T01:55:31;24.50;;;11.32;;
66129;SDS011;52930;51.464;11.764;2023-06-24T01:57:57;26.42;;;11.57;;
66129;SDS011;52930;51.464;11.764;2023-06-24T02:00:23;23.38;;;10.90;;
66129;SDS011;52930;51.464;11.764;2023-06-24T02:02:49;25.97;;;11.20;;
66129;SDS011;52930;51.464;11.764;2023-06-24T02:05:15;22.52;;;11.18;;
66129;SDS011;52930;51.464;11.764;2023-06-24T02:07:42;27.75;;;11.95;;
66129;SDS011;52930;51.464;11.764;2023-06-24T02:10:08;25.37;;;11.53;;
66129;SDS011;52930;51.464;11.764;2023-06-24T02:12:34;25.48;;;11.40;;
66129;SDS011;52930;51.464;11.764;2023-06-24T02:15:00;22.50;;;10.68;;
66129;SDS011;52930;51.464;11.764;2023-06-24T02:17:26;24.38;;;11.43;;
66129;SDS011;52930;51.464;11.764;2023-06-24T02:19:54;22.30;;;11.18;;
66129;SDS011;52930;51.464;11.764;2023-06-24T02:22:20;17.63;;;9.55;;
66129;SDS011;52930;51.464;11.764;2023-06-24T02:24:45;22.43;;;11.23;;
66129;SDS011;52930;51.464;11.764;2023-06-24T02:27:12;24.58;;;10.68;;
66129;SDS011;52930;51.464;11.764;2023-06-24T02:29:38;20.63;;;11.07;;
66129;SDS011;52930;51.464;11.764;2023-06-24T02:32:04;21.13;;;10.38;;
66129;SDS011;52930;51.464;11.764;2023-06-24T02:34:30;22.75;;;9.27;;
66129;SDS011;52930;51.464;11.764;2023-06-24T02:36:56;20.13;;;9.60;;
66129;SDS011;52930;51.464;11.764;2023-06-24T02:39:21;23.07;;;9.83;;
66129;SDS011;52930;51.464;11.764;2023-06-24T02:41:47;21.83;;;9.43;;
66129;SDS011;52930;51.464;11.764;2023-06-24T02:44:14;21.35;;;9.20;;
66129;SDS011;52930;51.464;11.764;2023-06-24T02:46:40;29.67;;;10.35;;
66129;SDS011;52930;51.464;11.764;2023-06-24T02:49:07;19.43;;;9.17;;
66129;SDS011;52930;51.464;11.764;2023-06-24T02:51:33;20.55;;;9.68;;
66129;SDS011;52930;51.464;11.764;2023-06-24T02:53:59;21.40;;;9.90;;
66129;SDS011;52930;51.464;11.764;2023-06-24T02:56:25;22.25;;;9.88;;
66129;SDS011;52930;51.464;11.764;2023-06-24T02:58:52;24.45;;;9.27;;
66129;SDS011;52930;51.464;11.764;2023-06-24T03:01:18;19.03;;;8.70;;
66129;SDS011;52930;51.464;11.764;2023-06-24T03:03:49;22.02;;;9.65;;
66129;SDS011;52930;51.464;11.764;2023-06-24T03:06:18;21.33;;;9.90;;
66129;SDS011;52930;51.464;11.764;2023-06-24T03:08:44;21.00;;;9.53;;
66129;SDS011;52930;51.464;11.764;2023-06-24T03:11:12;22.15;;;9.57;;
66129;SDS011;52930;51.464;11.764;2023-06-24T03:13:37;20.52;;;10.15;;
66129;SDS011;52930;51.464;11.764;2023-06-24T03:16:03;21.57;;;9.40;;
66129;SDS011;52930;51.464;11.764;2023-06-24T03:18:28;27.80;;;9.67;;
66129;SDS011;52930;51.464;11.764;2023-06-24T03:20:53;20.13;;;10.07;;
66129;SDS011;52930;51.464;11.764;2023-06-24T03:23:19;23.42;;;10.95;;
66129;SDS011;52930;51.464;11.764;2023-06-24T03:25:44;30.70;;;12.10;;
66129;SDS011;52930;51.464;11.764;2023-06-24T03:28:09;34.10;;;13.27;;
66129;SDS011;52930;51.464;11.764;2023-06-24T03:30:35;30.50;;;12.33;;
66129;SDS011;52930;51.464;11.764;2023-06-24T03:33:01;30.33;;;12.27;;
66129;SDS011;52930;51.464;11.764;2023-06-24T03:35:26;29.33;;;12.32;;
66129;SDS011;52930;51.464;11.764;2023-06-24T03:37:52;33.03;;;12.73;;
66129;SDS011;52930;51.464;11.764;2023-06-24T03:40:17;31.10;;;12.68;;
66129;SDS011;52930;51.464;11.764;2023-06-24T03:42:43;31.00;;;12.85;;
66129;SDS011;52930;51.464;11.764;2023-06-24T03:45:08;26.93;;;11.67;;
66129;SDS011;52930;51.464;11.764;2023-06-24T03:47:33;28.87;;;12.23;;
66129;SDS011;52930;51.464;11.764;2023-06-24T03:49:59;25.67;;;12.10;;
66129;SDS011;52930;51.464;11.764;2023-06-24T03:52:25;32.10;;;11.87;;
66129;SDS011;52930;51.464;11.764;2023-06-24T03:54:50;21.73;;;11.27;;
66129;SDS011;52930;51.464;11.764;2023-06-24T03:57:16;24.47;;;11.40;;
66129;SDS011;52930;51.464;11.764;2023-06-24T03:59:41;24.73;;;11.38;;
66129;SDS011;52930;51.464;11.764;2023-06-24T04:02:06;26.83;;;10.87;;
66129;SDS011;52930;51.464;11.764;2023-06-24T04:04:33;23.13;;;11.77;;
66129;SDS011;52930;51.464;11.764;2023-06-24T04:06:58;24.33;;;10.55;;
66129;SDS011;52930;51.464;11.764;2023-06-24T04:09:24;23.85;;;10.68;;
66129;SDS011;52930;51.464;11.764;2023-06-24T04:11:49;22.37;;;10.73;;
66129;SDS011;52930;51.464;11.764;2023-06-24T04:14:15;24.93;;;10.67;;
66129;SDS011;52930;51.464;11.764;2023-06-24T04:16:40;27.80;;;10.60;;
66129;SDS011;52930;51.464;11.764;2023-06-24T04:19:05;20.73;;;10.33;;
66129;SDS011;52930;51.464;11.764;2023-06-24T04:21:31;26.17;;;10.10;;
66129;SDS011;52930;51.464;11.764;2023-06-24T04:23:56;20.37;;;9.73;;
66129;SDS011;52930;51.464;11.764;2023-06-24T04:26:21;21.10;;;9.60;;
66129;SDS011;52930;51.464;11.764;2023-06-24T04:28:47;17.17;;;8.68;;
66129;SDS011;52930;51.464;11.764;2023-06-24T04:31:12;24.27;;;9.20;;
66129;SDS011;52930;51.464;11.764;2023-06-24T04:33:37;18.40;;;8.60;;
66129;SDS011;52930;51.464;11.764;2023-06-24T04:36:03;16.97;;;7.70;;
66129;SDS011;52930;51.464;11.764;2023-06-24T04:38:29;16.92;;;8.00;;
66129;SDS011;52930;51.464;11.764;2023-06-24T04:40:54;17.80;;;7.90;;
66129;SDS011;52930;51.464;11.764;2023-06-24T04:43:19;21.77;;;8.33;;
66129;SDS011;52930;51.464;11.764;2023-06-24T04:45:45;14.60;;;8.07;;
66129;SDS011;52930;51.464;11.764;2023-06-24T04:48:10;13.80;;;7.87;;
66129;SDS011;52930;51.464;11.764;2023-06-24T04:50:35;17.07;;;7.90;;
66129;SDS011;52930;51.464;11.764;2023-06-24T04:53:01;18.10;;;7.70;;
66129;SDS011;52930;51.464;11.764;2023-06-24T04:55:29;17.90;;;8.15;;
66129;SDS011;52930;51.464;11.764;2023-06-24T04:57:57;21.15;;;8.00;;
66129;SDS011;52930;51.464;11.764;2023-06-24T05:00:23;20.33;;;7.37;;
66129;SDS011;52930;51.464;11.764;2023-06-24T05:02:49;16.48;;;7.38;;
66129;SDS011;52930;51.464;11.764;2023-06-24T05:05:14;13.83;;;7.23;;
66129;SDS011;52930;51.464;11.764;2023-06-24T05:07:40;15.60;;;7.17;;
66129;SDS011;52930;51.464;11.764;2023-06-24T05:10:05;14.70;;;7.13;;
66129;SDS011;52930;51.464;11.764;2023-06-24T05:12:31;17.13;;;7.82;;
66129;SDS011;52930;51.464;11.764;2023-06-24T05:14:56;15.37;;;7.77;;
66129;SDS011;52930;51.464;11.764;2023-06-24T05:17:21;16.33;;;7.30;;
66129;SDS011;52930;51.464;11.764;2023-06-24T05:19:47;15.73;;;7.13;;
66129;SDS011;52930;51.464;11.764;2023-06-24T05:22:12;14.87;;;7.63;;
66129;SDS011;52930;51.464;11.764;2023-06-24T05:24:37;13.70;;;7.20;;
66129;SDS011;52930;51.464;11.764;2023-06-24T05:27:03;17.25;;;6.95;;
66129;SDS011;52930;51.464;11.764;2023-06-24T05:29:30;13.80;;;7.07;;
66129;SDS011;52930;51.464;11.764;2023-06-24T05:31:56;16.33;;;6.88;;
66129;SDS011;52930;51.464;11.764;2023-06-24T05:34:21;16.23;;;7.23;;
66129;SDS011;52930;51.464;11.764;2023-06-24T05:36:46;16.43;;;7.80;;
66129;SDS011;52930;51.464;11.764;2023-06-24T05:39:12;15.47;;;6.70;;
66129;SDS011;52930;51.464;11.764;2023-06-24T05:41:38;15.35;;;7.63;;
66129;SDS011;52930;51.464;11.764;2023-06-24T05:44:04;15.10;;;7.13;;
66129;SDS011;52930;51.464;11.764;2023-06-24T05:46:31;13.50;;;6.35;;
66129;SDS011;52930;51.464;11.764;2023-06-24T05:48:57;15.63;;;6.70;;
66129;SDS011;52930;51.464;11.764;2023-06-24T05:51:22;16.70;;;6.90;;
66129;SDS011;52930;51.464;11.764;2023-06-24T05:53:47;13.83;;;6.47;;
66129;SDS011;52930;51.464;11.764;2023-06-24T05:56:13;11.53;;;6.37;;
66129;SDS011;52930;51.464;11.764;2023-06-24T05:58:38;14.60;;;6.67;;
66129;SDS011;52930;51.464;11.764;2023-06-24T06:01:03;14.83;;;6.73;;
66129;SDS011;52930;51.464;11.764;2023-06-24T06:03:29;12.50;;;6.50;;
66129;SDS011;52930;51.464;11.764;2023-06-24T06:05:54;15.73;;;7.07;;
66129;SDS011;52930;51.464;11.764;2023-06-24T06:08:19;15.73;;;6.93;;
66129;SDS011;52930;51.464;11.764;2023-06-24T06:10:45;13.67;;;7.17;;
66129;SDS011;52930;51.464;11.764;2023-06-24T06:13:10;13.38;;;6.30;;
66129;SDS011;52930;51.464;11.764;2023-06-24T06:15:35;13.37;;;6.37;;
66129;SDS011;52930;51.464;11.764;2023-06-24T06:18:01;14.03;;;6.20;;
66129;SDS011;52930;51.464;11.764;2023-06-24T06:20:26;14.50;;;6.57;;
66129;SDS011;52930;51.464;11.764;2023-06-24T06:22:51;13.70;;;6.60;;
66129;SDS011;52930;51.464;11.764;2023-06-24T06:25:17;12.77;;;5.77;;
66129;SDS011;52930;51.464;11.764;2023-06-24T06:27:42;13.87;;;6.07;;
66129;SDS011;52930;51.464;11.764;2023-06-24T06:30:07;12.93;;;6.10;;
66129;SDS011;52930;51.464;11.764;2023-06-24T06:32:33;18.42;;;6.25;;
66129;SDS011;52930;51.464;11.764;2023-06-24T06:34:58;12.03;;;5.77;;
66129;SDS011;52930;51.464;11.764;2023-06-24T06:37:24;12.97;;;6.10;;
66129;SDS011;52930;51.464;11.764;2023-06-24T06:39:49;9.43;;;5.47;;
66129;SDS011;52930;51.464;11.764;2023-06-24T06:42:15;14.10;;;6.60;;
66129;SDS011;52930;51.464;11.764;2023-06-24T06:44:40;10.80;;;6.07;;
66129;SDS011;52930;51.464;11.764;2023-06-24T06:47:06;10.97;;;5.67;;
66129;SDS011;52930;51.464;11.764;2023-06-24T06:49:31;13.13;;;5.63;;
66129;SDS011;52930;51.464;11.764;2023-06-24T06:51:57;12.80;;;6.00;;
66129;SDS011;52930;51.464;11.764;2023-06-24T06:54:22;11.37;;;6.03;;
66129;SDS011;52930;51.464;11.764;2023-06-24T06:56:47;12.20;;;6.07;;
66129;SDS011;52930;51.464;11.764;2023-06-24T06:59:13;10.27;;;6.00;;
66129;SDS011;52930;51.464;11.764;2023-06-24T07:01:38;10.30;;;5.80;;
66129;SDS011;52930;51.464;11.764;2023-06-24T07:04:03;10.73;;;5.88;;
66129;SDS011;52930;51.464;11.764;2023-06-24T07:06:29;14.93;;;5.87;;
66129;SDS011;52930;51.464;11.764;2023-06-24T07:08:57;13.10;;;6.20;;
66129;SDS011;52930;51.464;11.764;2023-06-24T07:11:23;13.32;;;5.97;;
66129;SDS011;52930;51.464;11.764;2023-06-24T07:13:48;11.17;;;5.63;;
66129;SDS011;52930;51.464;11.764;2023-06-24T07:16:15;11.25;;;6.18;;
66129;SDS011;52930;51.464;11.764;2023-06-24T07:18:41;10.80;;;6.53;;
66129;SDS011;52930;51.464;11.764;2023-06-24T07:21:07;12.20;;;5.63;;
66129;SDS011;52930;51.464;11.764;2023-06-24T07:23:32;11.25;;;5.20;;
66129;SDS011;52930;51.464;11.764;2023-06-24T07:25:57;11.43;;;5.80;;
66129;SDS011;52930;51.464;11.764;2023-06-24T07:28:22;9.73;;;5.30;;
66129;SDS011;52930;51.464;11.764;2023-06-24T07:30:48;10.87;;;5.23;;
66129;SDS011;52930;51.464;11.764;2023-06-24T07:33:13;14.37;;;5.30;;
66129;SDS011;52930;51.464;11.764;2023-06-24T07:35:38;10.13;;;5.20;;
66129;SDS011;52930;51.464;11.764;2023-06-24T07:38:04;10.63;;;5.77;;
66129;SDS011;52930;51.464;11.764;2023-06-24T07:40:29;9.37;;;4.93;;
66129;SDS011;52930;51.464;11.764;2023-06-24T07:42:55;12.27;;;5.95;;
66129;SDS011;52930;51.464;11.764;2023-06-24T07:45:20;9.00;;;4.77;;
66129;SDS011;52930;51.464;11.764;2023-06-24T07:47:45;11.37;;;5.57;;
66129;SDS011;52930;51.464;11.764;2023-06-24T07:50:11;9.17;;;5.20;;
66129;SDS011;52930;51.464;11.764;2023-06-24T07:52:39;8.90;;;5.47;;
66129;SDS011;52930;51.464;11.764;2023-06-24T07:55:05;8.68;;;4.75;;
66129;SDS011;52930;51.464;11.764;2023-06-24T07:57:30;9.48;;;4.70;;
66129;SDS011;52930;51.464;11.764;2023-06-24T07:59:56;11.07;;;4.90;;
66129;SDS011;52930;51.464;11.764;2023-06-24T08:02:21;8.10;;;4.23;;
66129;SDS011;52930;51.464;11.764;2023-06-24T08:04:49;8.63;;;4.13;;
66129;SDS011;52930;51.464;11.764;2023-06-24T08:07:14;8.53;;;4.67;;
66129;SDS011;52930;51.464;11.764;2023-06-24T08:09:40;7.75;;;4.38;;
66129;SDS011;52930;51.464;11.764;2023-06-24T08:12:05;9.50;;;4.50;;
66129;SDS011;52930;51.464;11.764;2023-06-24T08:14:31;7.83;;;3.90;;
66129;SDS011;52930;51.464;11.764;2023-06-24T08:16:56;10.33;;;4.80;;
66129;SDS011;52930;51.464;11.764;2023-06-24T08:19:21;7.45;;;4.15;;
66129;SDS011;52930;51.464;11.764;2023-06-24T08:21:47;9.30;;;4.50;;
66129;SDS011;52930;51.464;11.764;2023-06-24T08:24:12;8.87;;;4.23;;
66129;SDS011;52930;51.464;11.764;2023-06-24T08:26:37;8.60;;;4.23;;
66129;SDS011;52930;51.464;11.764;2023-06-24T08:29:03;8.23;;;4.07;;
66129;SDS011;52930;51.464;11.764;2023-06-24T08:31:28;8.67;;;4.33;;
66129;SDS011;52930;51.464;11.764;2023-06-24T08:33:53;8.23;;;4.20;;
66129;SDS011;52930;51.464;11.764;2023-06-24T08:36:21;9.40;;;4.03;;
66129;SDS011;52930;51.464;11.764;2023-06-24T08:38:46;6.85;;;4.05;;
66129;SDS011;52930;51.464;11.764;2023-06-24T08:41:11;8.70;;;4.30;;
66129;SDS011;52930;51.464;11.764;2023-06-24T08:43:37;7.60;;;3.77;;
66129;SDS011;52930;51.464;11.764;2023-06-24T08:46:03;8.40;;;3.90;;
66129;SDS011;52930;51.464;11.764;2023-06-24T08:48:29;8.30;;;3.70;;
66129;SDS011;52930;51.464;11.764;2023-06-24T08:50:55;11.97;;;4.27;;
66129;SDS011;52930;51.464;11.764;2023-06-24T08:53:23;6.65;;;3.88;;
66129;SDS011;52930;51.464;11.764;2023-06-24T08:55:51;8.85;;;3.60;;
66129;SDS011;52930;51.464;11.764;2023-06-24T08:58:18;7.38;;;3.72;;
66129;SDS011;52930;51.464;11.764;2023-06-24T09:00:44;6.93;;;3.73;;
66129;SDS011;52930;51.464;11.764;2023-06-24T09:03:10;7.03;;;3.80;;
66129;SDS011;52930;51.464;11.764;2023-06-24T09:05:35;7.93;;;4.00;;
66129;SDS011;52930;51.464;11.764;2023-06-24T09:08:00;9.57;;;4.10;;
66129;SDS011;52930;51.464;11.764;2023-06-24T09:10:44;6.17;;;3.43;;
66129;SDS011;52930;51.464;11.764;2023-06-24T09:13:09;7.45;;;3.47;;
66129;SDS011;52930;51.464;11.764;2023-06-24T09:15:35;6.40;;;3.80;;
66129;SDS011;52930;51.464;11.764;2023-06-24T09:18:02;7.83;;;3.50;;
66129;SDS011;52930;51.464;11.764;2023-06-24T09:20:28;8.10;;;4.18;;
66129;SDS011;52930;51.464;11.764;2023-06-24T09:23:02;10.68;;;4.00;;
66129;SDS011;52930;51.464;11.764;2023-06-24T09:25:28;9.00;;;3.45;;
66129;SDS011;52930;51.464;11.764;2023-06-24T09:27:54;9.55;;;4.00;;
66129;SDS011;52930;51.464;11.764;2023-06-24T09:30:23;6.47;;;3.60;;
66129;SDS011;52930;51.464;11.764;2023-06-24T09:32:49;7.43;;;3.85;;
66129;SDS011;52930;51.464;11.764;2023-06-24T09:35:16;9.83;;;3.93;;
66129;SDS011;52930;51.464;11.764;2023-06-24T09:37:54;7.70;;;4.35;;
66129;SDS011;52930;51.464;11.764;2023-06-24T09:40:21;18.85;;;4.35;;
66129;SDS011;52930;51.464;11.764;2023-06-24T09:42:49;7.63;;;3.38;;
66129;SDS011;52930;51.464;11.764;2023-06-24T09:45:18;7.17;;;3.60;;
66129;SDS011;52930;51.464;11.764;2023-06-24T09:47:52;7.18;;;3.67;;
66129;SDS011;52930;51.464;11.764;2023-06-24T09:50:18;7.65;;;3.42;;
66129;SDS011;52930;51.464;11.764;2023-06-24T09:52:44;7.77;;;3.77;;
66129;SDS011;52930;51.464;11.764;2023-06-24T09:55:11;7.22;;;3.80;;
66129;SDS011;52930;51.464;11.764;2023-06-24T09:57:38;6.53;;;3.90;;
66129;SDS011;52930;51.464;11.764;2023-06-24T10:00:04;6.53;;;3.80;;
66129;SDS011;52930;51.464;11.764;2023-06-24T10:02:31;7.15;;;3.72;;
66129;SDS011;52930;51.464;11.764;2023-06-24T10:04:57;6.87;;;3.50;;
66129;SDS011;52930;51.464;11.764;2023-06-24T10:07:24;6.53;;;3.70;;
66129;SDS011;52930;51.464;11.764;2023-06-24T10:09:51;7.43;;;3.65;;
66129;SDS011;52930;51.464;11.764;2023-06-24T10:12:16;7.07;;;3.70;;
66129;SDS011;52930;51.464;11.764;2023-06-24T10:14:42;6.97;;;3.53;;
66129;SDS011;52930;51.464;11.764;2023-06-24T10:17:07;6.90;;;3.95;;
66129;SDS011;52930;51.464;11.764;2023-06-24T10:19:39;7.17;;;3.60;;
66129;SDS011;52930;51.464;11.764;2023-06-24T10:22:09;12.13;;;3.80;;
66129;SDS011;52930;51.464;11.764;2023-06-24T10:24:38;6.27;;;3.63;;
66129;SDS011;52930;51.464;11.764;2023-06-24T10:27:07;6.78;;;3.85;;
66129;SDS011;52930;51.464;11.764;2023-06-24T10:29:37;7.35;;;3.50;;
66129;SDS011;52930;51.464;11.764;2023-06-24T10:32:03;8.25;;;3.47;;
66129;SDS011;52930;51.464;11.764;2023-06-24T10:34:38;6.97;;;3.22;;
66129;SDS011;52930;51.464;11.764;2023-06-24T10:37:04;6.10;;;3.00;;
66129;SDS011;52930;51.464;11.764;2023-06-24T10:39:36;6.18;;;3.28;;
66129;SDS011;52930;51.464;11.764;2023-06-24T10:44:52;6.03;;;2.70;;
66129;SDS011;52930;51.464;11.764;2023-06-24T10:47:18;5.45;;;2.90;;
66129;SDS011;52930;51.464;11.764;2023-06-24T10:49:44;6.13;;;2.90;;
66129;SDS011;52930;51.464;11.764;2023-06-24T10:52:10;5.55;;;3.00;;
66129;SDS011;52930;51.464;11.764;2023-06-24T10:54:40;5.77;;;3.13;;
66129;SDS011;52930;51.464;11.764;2023-06-24T10:57:06;5.50;;;2.70;;
66129;SDS011;52930;51.464;11.764;2023-06-24T10:59:35;5.00;;;2.70;;
66129;SDS011;52930;51.464;11.764;2023-06-24T11:02:01;5.95;;;3.08;;
66129;SDS011;52930;51.464;11.764;2023-06-24T11:04:26;9.33;;;2.90;;
66129;SDS011;52930;51.464;11.764;2023-06-24T11:07:01;6.30;;;3.03;;
66129;SDS011;52930;51.464;11.764;2023-06-24T11:09:27;6.30;;;2.88;;
66129;SDS011;52930;51.464;11.764;2023-06-24T11:11:53;5.20;;;2.47;;
66129;SDS011;52930;51.464;11.764;2023-06-24T11:14:21;6.13;;;3.10;;
66129;SDS011;52930;51.464;11.764;2023-06-24T11:16:46;5.68;;;2.50;;
66129;SDS011;52930;51.464;11.764;2023-06-24T11:19:12;6.33;;;3.17;;
66129;SDS011;52930;51.464;11.764;2023-06-24T11:21:37;7.43;;;3.65;;
66129;SDS011;52930;51.464;11.764;2023-06-24T11:24:03;8.07;;;3.30;;
66129;SDS011;52930;51.464;11.764;2023-06-24T11:26:28;5.65;;;2.53;;
66129;SDS011;52930;51.464;11.764;2023-06-24T11:28:54;5.70;;;2.27;;
66129;SDS011;52930;51.464;11.764;2023-06-24T11:31:23;6.13;;;2.60;;
66129;SDS011;52930;51.464;11.764;2023-06-24T11:33:50;5.70;;;2.75;;
66129;SDS011;52930;51.464;11.764;2023-06-24T11:36:17;6.38;;;2.60;;
66129;SDS011;52930;51.464;11.764;2023-06-24T11:38:42;6.47;;;2.65;;
66129;SDS011;52930;51.464;11.764;2023-06-24T11:41:08;7.33;;;3.20;;
66129;SDS011;52930;51.464;11.764;2023-06-24T11:43:33;5.67;;;2.43;;
66129;SDS011;52930;51.464;11.764;2023-06-24T11:45:59;6.70;;;2.80;;
66129;SDS011;52930;51.464;11.764;2023-06-24T11:48:28;6.90;;;3.17;;
66129;SDS011;52930;51.464;11.764;2023-06-24T11:50:53;7.18;;;2.97;;
66129;SDS011;52930;51.464;11.764;2023-06-24T11:53:40;5.68;;;2.33;;
66129;SDS011;52930;51.464;11.764;2023-06-24T11:56:11;5.30;;;2.50;;
66129;SDS011;52930;51.464;11.764;2023-06-24T11:58:37;6.03;;;2.50;;
66129;SDS011;52930;51.464;11.764;2023-06-24T12:01:03;5.43;;;2.47;;
66129;SDS011;52930;51.464;11.764;2023-06-24T12:03:29;5.13;;;2.40;;
66129;SDS011;52930;51.464;11.764;2023-06-24T12:05:57;5.57;;;2.22;;
66129;SDS011;52930;51.464;11.764;2023-06-24T12:08:22;5.47;;;2.50;;
66129;SDS011;52930;51.464;11.764;2023-06-24T12:10:48;6.10;;;2.70;;
66129;SDS011;52930;51.464;11.764;2023-06-24T12:13:13;5.27;;;2.40;;
66129;SDS011;52930;51.464;11.764;2023-06-24T12:15:39;5.72;;;2.92;;
66129;SDS011;52930;51.464;11.764;2023-06-24T12:18:05;5.20;;;2.40;;
66129;SDS011;52930;51.464;11.764;2023-06-24T12:20:30;7.15;;;2.67;;
66129;SDS011;52930;51.464;11.764;2023-06-24T12:22:56;6.90;;;2.60;;
66129;SDS011;52930;51.464;11.764;2023-06-24T12:25:22;5.72;;;2.70;;
66129;SDS011;52930;51.464;11.764;2023-06-24T12:27:47;5.37;;;2.87;;
66129;SDS011;52930;51.464;11.764;2023-06-24T12:30:13;4.30;;;2.27;;
66129;SDS011;52930;51.464;11.764;2023-06-24T12:32:38;4.83;;;2.60;;
66129;SDS011;52930;51.464;11.764;2023-06-24T12:35:04;4.88;;;2.35;;
66129;SDS011;52930;51.464;11.764;2023-06-24T12:37:33;5.15;;;2.65;;
66129;SDS011;52930;51.464;11.764;2023-06-24T12:39:59;5.07;;;2.15;;
66129;SDS011;52930;51.464;11.764;2023-06-24T12:42:25;5.43;;;2.60;;
66129;SDS011;52930;51.464;11.764;2023-06-24T12:44:51;5.20;;;2.40;;
66129;SDS011;52930;51.464;11.764;2023-06-24T12:47:16;8.00;;;2.70;;
66129;SDS011;52930;51.464;11.764;2023-06-24T12:49:41;8.40;;;3.07;;
66129;SDS011;52930;51.464;11.764;2023-06-24T12:52:07;6.10;;;2.83;;
66129;SDS011;52930;51.464;11.764;2023-06-24T12:54:32;5.97;;;2.70;;
66129;SDS011;52930;51.464;11.764;2023-06-24T12:56:58;5.93;;;2.87;;
66129;SDS011;52930;51.464;11.764;2023-06-24T12:59:23;4.73;;;2.60;;
66129;SDS011;52930;51.464;11.764;2023-06-24T13:01:49;5.85;;;2.65;;
66129;SDS011;52930;51.464;11.764;2023-06-24T13:04:14;6.27;;;2.63;;
66129;SDS011;52930;51.464;11.764;2023-06-24T13:06:39;5.97;;;2.63;;
66129;SDS011;52930;51.464;11.764;2023-06-24T13:09:05;6.53;;;2.63;;
66129;SDS011;52930;51.464;11.764;2023-06-24T13:11:30;8.43;;;2.63;;
66129;SDS011;52930;51.464;11.764;2023-06-24T13:13:55;5.73;;;2.90;;
66129;SDS011;52930;51.464;11.764;2023-06-24T13:16:21;5.40;;;2.60;;
66129;SDS011;52930;51.464;11.764;2023-06-24T13:18:46;6.35;;;2.67;;
66129;SDS011;52930;51.464;11.764;2023-06-24T13:21:12;5.27;;;2.60;;
66129;SDS011;52930;51.464;11.764;2023-06-24T13:23:37;5.83;;;2.50;;
66129;SDS011;52930;51.464;11.764;2023-06-24T13:26:03;5.30;;;2.70;;
66129;SDS011;52930;51.464;11.764;2023-06-24T13:28:29;5.67;;;2.70;;
66129;SDS011;52930;51.464;11.764;2023-06-24T13:30:54;6.33;;;2.83;;
66129;SDS011;52930;51.464;11.764;2023-06-24T13:33:20;5.87;;;2.93;;
66129;SDS011;52930;51.464;11.764;2023-06-24T13:35:45;5.00;;;2.60;;
66129;SDS011;52930;51.464;11.764;2023-06-24T13:38:11;5.28;;;2.38;;
66129;SDS011;52930;51.464;11.764;2023-06-24T13:40:37;5.90;;;2.60;;
66129;SDS011;52930;51.464;11.764;2023-06-24T13:43:02;5.22;;;2.60;;
66129;SDS011;52930;51.464;11.764;2023-06-24T13:45:28;7.80;;;2.60;;
66129;SDS011;52930;51.464;11.764;2023-06-24T13:47:53;6.50;;;2.53;;
66129;SDS011;52930;51.464;11.764;2023-06-24T13:50:20;5.97;;;2.80;;
66129;SDS011;52930;51.464;11.764;2023-06-24T13:52:45;6.13;;;2.70;;
66129;SDS011;52930;51.464;11.764;2023-06-24T13:55:11;7.87;;;2.77;;
66129;SDS011;52930;51.464;11.764;2023-06-24T13:57:36;5.20;;;2.20;;
66129;SDS011;52930;51.464;11.764;2023-06-24T14:00:02;5.13;;;2.40;;
66129;SDS011;52930;51.464;11.764;2023-06-24T14:02:27;5.20;;;2.47;;
66129;SDS011;52930;51.464;11.764;2023-06-24T14:04:53;5.30;;;2.93;;
66129;SDS011;52930;51.464;11.764;2023-06-24T14:07:18;7.20;;;2.80;;
66129;SDS011;52930;51.464;11.764;2023-06-24T14:09:43;7.37;;;2.90;;
66129;SDS011;52930;51.464;11.764;2023-06-24T14:12:09;6.87;;;2.40;;
66129;SDS011;52930;51.464;11.764;2023-06-24T14:14:35;7.00;;;2.87;;
66129;SDS011;52930;51.464;11.764;2023-06-24T14:17:01;6.07;;;2.70;;
66129;SDS011;52930;51.464;11.764;2023-06-24T14:19:27;5.80;;;2.77;;
66129;SDS011;52930;51.464;11.764;2023-06-24T14:21:52;5.57;;;2.72;;
66129;SDS011;52930;51.464;11.764;2023-06-24T14:24:18;4.70;;;2.63;;
66129;SDS011;52930;51.464;11.764;2023-06-24T14:26:43;5.13;;;2.60;;
66129;SDS011;52930;51.464;11.764;2023-06-24T14:29:09;5.40;;;2.70;;
66129;SDS011;52930;51.464;11.764;2023-06-24T14:31:34;6.17;;;3.13;;
66129;SDS011;52930;51.464;11.764;2023-06-24T14:33:59;6.07;;;2.10;;